sensor_id;sensor_type;location;lat;lon;timestamp;pressure;altitude;pressure_sealevel;temperature;humidity
5679;BME280;2862;52.560;13.566;2023-12-07T00:02:12;100811.91;;;1.49;100.00
5679;BME280;2862;52.560;13.566;2023-12-07T00:12:15;100817.66;;;1.57;100.00
5679;BME280;2862;52.560;13.566;2023-12-07T00:22:19;100823.59;;;1.63;100.00
5679;BME280;2862;52.560;13.566;2023-12-07T00:32:22;100827.44;;;1.55;100.00
5679;BME280;2862;52.560;13.566;2023-12-07T00:42:27;100833.88;;;1.48;100.00
5679;BME280;2862;52.560;13.566;2023-12-07T00:52:30;100837.16;;;1.53;100.00
5679;BME280;2862;52.560;13.566;2023-12-07T01:02:34;100834.97;;;1.44;100.00
5679;BME280;2862;52.560;13.566;2023-12-07T01:12:37;100846.16;;;1.49;100.00
5679;BME280;2862;52.560;13.566;2023-12-07T01:22:44;100867.16;;;1.51;100.00
5679;BME280;2862;52.560;13.566;2023-12-07T01:32:50;100887.03;;;1.38;100.00
5679;BME280;2862;52.560;13.566;2023-12-07T01:42:54;100878.69;;;1.28;100.00
5679;BME280;2862;52.560;13.566;2023-12-07T01:53:01;100893.44;;;1.32;100.00
5679;BME280;2862;52.560;13.566;2023-12-07T02:03:07;100909.00;;;1.38;100.00
5679;BME280;2862;52.560;13.566;2023-12-07T02:13:11;100905.53;;;1.36;100.00
5679;BME280;2862;52.560;13.566;2023-12-07T02:23:17;100906.63;;;1.32;100.00
5679;BME280;2862;52.560;13.566;2023-12-07T02:33:27;100903.75;;;1.37;100.00
5679;BME280;2862;52.560;13.566;2023-12-07T02:43:30;100914.88;;;1.43;100.00
5679;BME280;2862;52.560;13.566;2023-12-07T02:53:34;100917.94;;;1.54;100.00
5679;BME280;2862;52.560;13.566;2023-12-07T03:03:37;100928.81;;;1.47;100.00
5679;BME280;2862;52.560;13.566;2023-12-07T03:13:43;100937.09;;;1.58;100.00
5679;BME280;2862;52.560;13.566;2023-12-07T03:23:46;100936.19;;;1.59;100.00
5679;BME280;2862;52.560;13.566;2023-12-07T03:33:53;100946.91;;;1.54;100.00
5679;BME280;2862;52.560;13.566;2023-12-07T03:43:56;100950.56;;;1.72;100.00
5679;BME280;2862;52.560;13.566;2023-12-07T03:54:01;100963.09;;;1.67;100.00
5679;BME280;2862;52.560;13.566;2023-12-07T04:04:03;100962.28;;;1.65;100.00
5679;BME280;2862;52.560;13.566;2023-12-07T04:14:08;100953.97;;;1.74;100.00
5679;BME280;2862;52.560;13.566;2023-12-07T04:24:11;100965.91;;;1.83;100.00
5679;BME280;2862;52.560;13.566;2023-12-07T04:34:15;100974.19;;;1.94;100.00
5679;BME280;2862;52.560;13.566;2023-12-07T04:44:18;100986.25;;;2.00;100.00
5679;BME280;2862;52.560;13.566;2023-12-07T04:54:23;101009.78;;;2.04;100.00
5679;BME280;2862;52.560;13.566;2023-12-07T05:04:26;101004.41;;;2.07;100.00
5679;BME280;2862;52.560;13.566;2023-12-07T05:14:30;101019.50;;;2.04;100.00
5679;BME280;2862;52.560;13.566;2023-12-07T05:24:34;101013.38;;;2.03;100.00
5679;BME280;2862;52.560;13.566;2023-12-07T05:34:39;101011.50;;;2.05;100.00
5679;BME280;2862;52.560;13.566;2023-12-07T05:44:42;101017.25;;;2.15;100.00
5679;BME280;2862;52.560;13.566;2023-12-07T05:54:47;101007.31;;;2.01;100.00
5679;BME280;2862;52.560;13.566;2023-12-07T06:04:50;101018.84;;;1.99;100.00
5679;BME280;2862;52.560;13.566;2023-12-07T06:14:54;101027.22;;;2.08;100.00
5679;BME280;2862;52.560;13.566;2023-12-07T06:24:57;101037.41;;;2.16;100.00
5679;BME280;2862;52.560;13.566;2023-12-07T06:35:02;101050.13;;;2.06;100.00
5679;BME280;2862;52.560;13.566;2023-12-07T06:45:07;101070.34;;;2.07;100.00
5679;BME280;2862;52.560;13.566;2023-12-07T06:55:14;101074.44;;;2.15;100.00
5679;BME280;2862;52.560;13.566;2023-12-07T07:05:17;101080.44;;;2.18;100.00
5679;BME280;2862;52.560;13.566;2023-12-07T07:15:22;101087.22;;;2.24;100.00
5679;BME280;2862;52.560;13.566;2023-12-07T07:25:27;101085.38;;;2.26;100.00
5679;BME280;2862;52.560;13.566;2023-12-07T07:35:31;101079.31;;;2.24;100.00
5679;BME280;2862;52.560;13.566;2023-12-07T07:45:34;101083.72;;;2.44;100.00
5679;BME280;2862;52.560;13.566;2023-12-07T07:55:39;101088.16;;;3.01;100.00
5679;BME280;2862;52.560;13.566;2023-12-07T08:05:42;101088.44;;;2.76;100.00
5679;BME280;2862;52.560;13.566;2023-12-07T08:15:46;101089.88;;;2.63;100.00
5679;BME280;2862;52.560;13.566;2023-12-07T08:25:49;101092.09;;;2.53;100.00
5679;BME280;2862;52.560;13.566;2023-12-07T08:35:53;101112.00;;;2.60;100.00
5679;BME280;2862;52.560;13.566;2023-12-07T08:45:58;101126.69;;;2.47;100.00
5679;BME280;2862;52.560;13.566;2023-12-07T08:56:04;101125.06;;;2.63;100.00
5679;BME280;2862;52.560;13.566;2023-12-07T09:06:07;101126.69;;;2.86;100.00
5679;BME280;2862;52.560;13.566;2023-12-07T09:16:12;101135.78;;;3.00;100.00
5679;BME280;2862;52.560;13.566;2023-12-07T09:26:15;101133.03;;;2.82;100.00
5679;BME280;2862;52.560;13.566;2023-12-07T09:36:19;101128.63;;;2.83;100.00
5679;BME280;2862;52.560;13.566;2023-12-07T09:46:23;101135.50;;;2.87;100.00
5679;BME280;2862;52.560;13.566;2023-12-07T09:56:27;101151.75;;;2.97;100.00
5679;BME280;2862;52.560;13.566;2023-12-07T10:06:42;101159.50;;;2.81;100.00
5679;BME280;2862;52.560;13.566;2023-12-07T10:16:54;101155.09;;;2.81;100.00
5679;BME280;2862;52.560;13.566;2023-12-07T10:26:58;101155.22;;;2.78;100.00
5679;BME280;2862;52.560;13.566;2023-12-07T10:37:04;101134.56;;;3.07;100.00
5679;BME280;2862;52.560;13.566;2023-12-07T10:47:09;101140.63;;;3.09;100.00
5679;BME280;2862;52.560;13.566;2023-12-07T10:57:14;101140.78;;;3.06;100.00
5679;BME280;2862;52.560;13.566;2023-12-07T11:07:20;101139.56;;;2.94;100.00
5679;BME280;2862;52.560;13.566;2023-12-07T11:17:26;101125.25;;;2.98;100.00
5679;BME280;2862;52.560;13.566;2023-12-07T11:27:30;101121.94;;;3.13;100.00
5679;BME280;2862;52.560;13.566;2023-12-07T11:38:03;101113.38;;;3.27;100.00
5679;BME280;2862;52.560;13.566;2023-12-07T11:48:11;101114.66;;;3.37;100.00
5679;BME280;2862;52.560;13.566;2023-12-07T11:58:16;101114.00;;;3.32;100.00
5679;BME280;2862;52.560;13.566;2023-12-07T12:08:20;101113.81;;;3.18;100.00
5679;BME280;2862;52.560;13.566;2023-12-07T12:18:25;101112.31;;;3.12;100.00
5679;BME280;2862;52.560;13.566;2023-12-07T12:28:29;101118.94;;;3.02;100.00
5679;BME280;2862;52.560;13.566;2023-12-07T12:38:36;101112.00;;;3.00;100.00
5679;BME280;2862;52.560;13.566;2023-12-07T12:48:52;101116.56;;;2.96;100.00
5679;BME280;2862;52.560;13.566;2023-12-07T12:58:57;101115.06;;;2.90;100.00
5679;BME280;2862;52.560;13.566;2023-12-07T13:09:01;101108.34;;;2.83;100.00
5679;BME280;2862;52.560;13.566;2023-12-07T13:19:06;101104.41;;;2.92;100.00
5679;BME280;2862;52.560;13.566;2023-12-07T13:29:11;101114.47;;;2.84;100.00
5679;BME280;2862;52.560;13.566;2023-12-07T13:39:16;101106.06;;;2.76;100.00
5679;BME280;2862;52.560;13.566;2023-12-07T13:49:24;101111.28;;;2.77;100.00
5679;BME280;2862;52.560;13.566;2023-12-07T13:59:30;101125.31;;;2.78;100.00
5679;BME280;2862;52.560;13.566;2023-12-07T14:09:33;101128.81;;;2.78;100.00
5679;BME280;2862;52.560;13.566;2023-12-07T14:19:40;101133.91;;;2.83;100.00
5679;BME280;2862;52.560;13.566;2023-12-07T14:29:44;101143.19;;;2.91;100.00
5679;BME280;2862;52.560;13.566;2023-12-07T14:39:48;101138.66;;;2.75;100.00
5679;BME280;2862;52.560;13.566;2023-12-07T14:49:51;101136.19;;;2.90;100.00
5679;BME280;2862;52.560;13.566;2023-12-07T14:59:55;101136.53;;;2.83;100.00
5679;BME280;2862;52.560;13.566;2023-12-07T15:10:00;101148.03;;;2.82;100.00
5679;BME280;2862;52.560;13.566;2023-12-07T15:20:06;101139.50;;;2.75;100.00
5679;BME280;2862;52.560;13.566;2023-12-07T15:30:10;101138.25;;;2.63;100.00
5679;BME280;2862;52.560;13.566;2023-12-07T15:40:15;101124.44;;;2.58;100.00
5679;BME280;2862;52.560;13.566;2023-12-07T15:50:18;101123.03;;;2.50;100.00
5679;BME280;2862;52.560;13.566;2023-12-07T16:00:23;101124.66;;;2.52;100.00
5679;BME280;2862;52.560;13.566;2023-12-07T16:10:26;101114.91;;;2.54;100.00
5679;BME280;2862;52.560;13.566;2023-12-07T16:20:31;101128.38;;;2.48;100.00
5679;BME280;2862;52.560;13.566;2023-12-07T16:30:34;101110.97;;;2.44;100.00
5679;BME280;2862;52.560;13.566;2023-12-07T16:40:38;101121.59;;;2.43;100.00
5679;BME280;2862;52.560;13.566;2023-12-07T16:50:41;101129.03;;;2.33;100.00
5679;BME280;2862;52.560;13.566;2023-12-07T17:00:46;101121.25;;;2.50;100.00
5679;BME280;2862;52.560;13.566;2023-12-07T17:10:49;101128.13;;;2.54;100.00
5679;BME280;2862;52.560;13.566;2023-12-07T17:20:54;101136.22;;;2.50;100.00
5679;BME280;2862;52.560;13.566;2023-12-07T17:30:57;101134.44;;;2.50;100.00
5679;BME280;2862;52.560;13.566;2023-12-07T17:41:02;101151.06;;;2.73;100.00
5679;BME280;2862;52.560;13.566;2023-12-07T17:51:05;101169.53;;;2.52;100.00
5679;BME280;2862;52.560;13.566;2023-12-07T18:01:17;101172.66;;;2.42;100.00
5679;BME280;2862;52.560;13.566;2023-12-07T18:11:20;101147.91;;;2.44;100.00
5679;BME280;2862;52.560;13.566;2023-12-07T18:21:25;101143.28;;;2.49;100.00
5679;BME280;2862;52.560;13.566;2023-12-07T18:31:29;101151.41;;;2.45;100.00
5679;BME280;2862;52.560;13.566;2023-12-07T18:41:33;101143.97;;;2.12;100.00
5679;BME280;2862;52.560;13.566;2023-12-07T18:51:37;101142.41;;;2.08;100.00
5679;BME280;2862;52.560;13.566;2023-12-07T19:01:42;101121.72;;;2.19;100.00
5679;BME280;2862;52.560;13.566;2023-12-07T19:11:45;101141.19;;;2.37;100.00
5679;BME280;2862;52.560;13.566;2023-12-07T19:21:49;101118.75;;;2.47;100.00
5679;BME280;2862;52.560;13.566;2023-12-07T19:31:53;101120.78;;;2.40;100.00
5679;BME280;2862;52.560;13.566;2023-12-07T19:41:57;101092.63;;;2.41;100.00
5679;BME280;2862;52.560;13.566;2023-12-07T19:52:00;101094.34;;;2.42;100.00
5679;BME280;2862;52.560;13.566;2023-12-07T20:02:05;101077.28;;;2.30;100.00
5679;BME280;2862;52.560;13.566;2023-12-07T20:12:08;101060.75;;;2.46;100.00
5679;BME280;2862;52.560;13.566;2023-12-07T20:22:12;101053.38;;;2.33;100.00
5679;BME280;2862;52.560;13.566;2023-12-07T20:32:15;101035.84;;;2.32;100.00
5679;BME280;2862;52.560;13.566;2023-12-07T20:42:19;101039.59;;;2.27;100.00
5679;BME280;2862;52.560;13.566;2023-12-07T20:52:36;101048.03;;;1.94;100.00
5679;BME280;2862;52.560;13.566;2023-12-07T21:02:54;101039.38;;;1.70;100.00
5679;BME280;2862;52.560;13.566;2023-12-07T21:12:58;101040.97;;;1.74;100.00
5679;BME280;2862;52.560;13.566;2023-12-07T21:23:10;101028.91;;;1.89;100.00
5679;BME280;2862;52.560;13.566;2023-12-07T21:33:20;101022.59;;;1.73;100.00
5679;BME280;2862;52.560;13.566;2023-12-07T21:43:35;101028.13;;;1.87;100.00
5679;BME280;2862;52.560;13.566;2023-12-07T21:53:48;101013.59;;;1.56;100.00
5679;BME280;2862;52.560;13.566;2023-12-07T22:03:55;101018.44;;;1.67;100.00
5679;BME280;2862;52.560;13.566;2023-12-07T22:13:59;101017.88;;;1.59;100.00
5679;BME280;2862;52.560;13.566;2023-12-07T22:24:07;101004.00;;;1.55;100.00
5679;BME280;2862;52.560;13.566;2023-12-07T22:34:16;100998.31;;;1.44;100.00
5679;BME280;2862;52.560;13.566;2023-12-07T22:44:20;100996.19;;;1.52;100.00
5679;BME280;2862;52.560;13.566;2023-12-07T22:54:25;100995.09;;;1.58;100.00
5679;BME280;2862;52.560;13.566;2023-12-07T23:04:29;100992.63;;;1.53;100.00
5679;BME280;2862;52.560;13.566;2023-12-07T23:14:32;100980.06;;;1.60;100.00
5679;BME280;2862;52.560;13.566;2023-12-07T23:24:37;100969.72;;;1.55;100.00
5679;BME280;2862;52.560;13.566;2023-12-07T23:34:40;100961.69;;;1.58;100.00
5679;BME280;2862;52.560;13.566;2023-12-07T23:44:44;100949.34;;;1.59;100.00
5679;BME280;2862;52.560;13.566;2023-12-07T23:54:50;100927.69;;;1.52;100.00
